Terminal Aerodrome Forecast
Issued by NWS Louisville, KY

Home | Current Version | Previous Version | Text Only | Print | Product List | Glossary On
Versions: 1 2 3 4 5 6 7 8 9 10 11 12 13 14 15 16 17 18
000
FTUS43 KLMK 301100
TAFBWG
TAF
KBWG 301138Z 3012/0112 VRB03KT P6SM FEW040 FEW250
      TEMPO 3012/3013 5SM BR
     FM301400 23007KT P6SM FEW040 SCT250
     FM301600 26008G14KT P6SM VCTS SCT040CB BKN250
     FM302300 VRB06KT P6SM FEW050 SCT250=

USA.gov is the U.S. government's official web portal to all federal, state and local government web resources and services.